»·PEaware :: SWA1621 KSAN-KSFO

SWA1621 :: KSAN-KSFO

FLIGHT INFORMATION

Flight Status: Arrived
Operator:
Southwest Airlines
More flights by this operator :: More flights under this callsign
Pilot: Nick B. (16803)
Aircraft: BOEING 737-700
(B737)
More flights by this aircraft type
Origin: KSAN San Diego Intl-Lindbergh
United States
Destination: KSFO San Francisco Intl
United States
More flights between these airports :: More routes between these airports
Route: +PADRZ1 IKAYE RIZIN SPLNT STOKD SERFR SERFR2
File this flight plan on PilotEdge
Remarks:
Altitude:
(Current/Filed)
34,000ft
Speed:
(Current/Filed)
450kts
Departed: 29-Sep-17 08:56 PM
Arrived: 29-Sep-17 10:04 PM
Distance/Time
Traveled:
388nm/1:08
Distance/Time
To Go:
Arrived

Flight Plot

Page will automatically refresh every two minutes.

Flight plan parsing failed; only flown route is shown


Map Options




Map Legend


Flown Route
Filed Route
Departure Airport
Arrival Airport
Navaid (VOR, NDB)
Fix

Horizontal Profiles

Position Reports

Time Latitude Longitude Heading Altitude Ground
Speed
29-Sep-17 20:36 32.733289 -117.196490 171 22ft 0kts
29-Sep-17 20:37 32.733289 -117.196490 171 22ft 0kts
29-Sep-17 20:38 32.733289 -117.196490 171 22ft 0kts
29-Sep-17 20:39 32.733289 -117.196490 171 22ft 0kts
29-Sep-17 20:40 32.733289 -117.196490 171 22ft 0kts
29-Sep-17 20:41 32.733289 -117.196490 171 22ft 0kts
29-Sep-17 20:42 32.733289 -117.196490 171 22ft 0kts
29-Sep-17 20:43 32.733289 -117.196490 171 22ft 0kts
29-Sep-17 20:44 32.733289 -117.196490 171 22ft 0kts
29-Sep-17 20:45 32.733289 -117.196490 171 22ft 0kts
29-Sep-17 20:46 32.733289 -117.196490 171 22ft 0kts
29-Sep-17 20:47 32.733289 -117.196490 171 22ft 0kts
29-Sep-17 20:48 32.733289 -117.196490 171 22ft 0kts
29-Sep-17 20:49 32.733289 -117.196490 171 22ft 0kts
29-Sep-17 20:50 32.733289 -117.196490 171 22ft 0kts
29-Sep-17 20:51 32.733289 -117.196490 171 22ft 0kts
29-Sep-17 20:52 32.733306 -117.196493 171 22ft 1kts
29-Sep-17 20:53 32.733912 -117.196602 171 22ft 0kts
29-Sep-17 20:54 32.733912 -117.196602 171 22ft 0kts
29-Sep-17 20:55 32.733912 -117.196602 171 22ft 0kts
29-Sep-17 20:56 32.733940 -117.195724 74 22ft 15kts
29-Sep-17 20:57 32.732088 -117.187933 106 22ft 37kts
29-Sep-17 20:58 32.729580 -117.176878 56 22ft 0kts
29-Sep-17 20:59 32.730397 -117.176616 280 22ft 9kts
29-Sep-17 21:00 32.738447 -117.208965 293 1066ft 153kts
29-Sep-17 21:01 32.758945 -117.246521 304 2842ft 205kts
29-Sep-17 21:02 32.795145 -117.310838 304 4919ft 267kts
29-Sep-17 21:03 32.841765 -117.383984 309 8719ft 287kts
29-Sep-17 21:04 32.893574 -117.464113 308 11438ft 335kts
29-Sep-17 21:05 32.953562 -117.557339 307 14296ft 362kts
29-Sep-17 21:06 33.015768 -117.654498 307 17237ft 375kts
29-Sep-17 21:07 33.086263 -117.752220 319 19909ft 386kts
29-Sep-17 21:08 33.169577 -117.837115 318 22065ft 398kts
29-Sep-17 21:09 33.251361 -117.928775 315 23781ft 407kts
29-Sep-17 21:10 33.331535 -118.025775 314 25428ft 413kts
29-Sep-17 21:11 33.413069 -118.124009 314 26899ft 419kts
29-Sep-17 21:12 33.495774 -118.223159 315 28189ft 424kts
29-Sep-17 21:13 33.579789 -118.324185 315 29323ft 429kts
29-Sep-17 21:14 33.663399 -118.425132 315 30836ft 423kts
29-Sep-17 21:15 33.745608 -118.524689 315 32273ft 417kts
29-Sep-17 21:16 33.826377 -118.622810 315 33834ft 407kts
29-Sep-17 21:17 33.906077 -118.719891 315 33940ft 407kts
29-Sep-17 21:18 33.985748 -118.816954 315 33935ft 406kts
29-Sep-17 21:19 34.064799 -118.913937 315 33931ft 405kts
29-Sep-17 21:20 34.142287 -119.012528 309 33929ft 406kts
29-Sep-17 21:21 34.203699 -119.127761 304 33930ft 407kts
29-Sep-17 21:22 34.263527 -119.243780 304 33929ft 407kts
29-Sep-17 21:23 34.323125 -119.359853 304 33925ft 406kts
29-Sep-17 21:24 34.372775 -119.457186 304 33927ft 406kts
29-Sep-17 21:25 34.452075 -119.582489 316 33922ft 400kts
29-Sep-17 21:26 34.516821 -119.662433 316 33926ft 399kts
29-Sep-17 21:27 34.594768 -119.758874 316 33918ft 399kts
29-Sep-17 21:28 34.672253 -119.854716 316 33972ft 398kts
29-Sep-17 21:29 34.749945 -119.950785 316 33971ft 397kts
29-Sep-17 21:30 34.827179 -120.046765 316 34002ft 395kts
29-Sep-17 21:31 34.904044 -120.142359 316 34030ft 396kts
29-Sep-17 21:32 34.981006 -120.238697 315 34028ft 396kts
29-Sep-17 21:33 35.057420 -120.334759 315 34035ft 395kts
29-Sep-17 21:34 35.136056 -120.427908 318 34035ft 394kts
29-Sep-17 21:35 35.217270 -120.518319 318 34030ft 393kts
29-Sep-17 21:36 35.298020 -120.608545 318 34031ft 394kts
29-Sep-17 21:37 35.378723 -120.699522 317 34028ft 393kts
29-Sep-17 21:38 35.459099 -120.790546 317 34024ft 393kts
29-Sep-17 21:39 35.543711 -120.875298 321 34018ft 397kts
29-Sep-17 21:40 35.633316 -120.957699 320 34010ft 405kts
29-Sep-17 21:41 35.724861 -121.042870 319 34005ft 420kts
29-Sep-17 21:42 35.817793 -121.129356 320 34006ft 414kts
29-Sep-17 21:43 35.910070 -121.215535 319 34020ft 418kts
29-Sep-17 21:44 36.002393 -121.302454 319 34016ft 417kts
29-Sep-17 21:45 36.096020 -121.387858 324 33354ft 415kts
29-Sep-17 21:46 36.193290 -121.462613 325 30731ft 403kts
29-Sep-17 21:47 36.285666 -121.534258 325 28681ft 383kts
29-Sep-17 21:48 36.374519 -121.603939 325 26670ft 376kts
29-Sep-17 21:49 36.461711 -121.672639 325 24587ft 367kts
29-Sep-17 21:50 36.546647 -121.739522 324 22689ft 358kts
29-Sep-17 21:51 36.630241 -121.805725 324 20718ft 354kts
29-Sep-17 21:52 36.712391 -121.871016 324 18916ft 347kts
29-Sep-17 21:53 36.803005 -121.911960 343 17217ft 349kts
29-Sep-17 21:54 36.897006 -121.937627 343 15429ft 340kts
29-Sep-17 21:55 36.987115 -121.965410 338 13807ft 316kts
29-Sep-17 21:56 37.064693 -121.996563 338 12948ft 281kts
29-Sep-17 21:57 37.138914 -122.025902 342 11392ft 273kts
29-Sep-17 21:58 37.209224 -122.053562 341 9931ft 264kts
29-Sep-17 21:59 37.279190 -122.081090 340 8306ft 261kts
29-Sep-17 22:00 37.348018 -122.108141 341 6743ft 258kts
29-Sep-17 22:01 37.416160 -122.134965 341 5250ft 253kts
29-Sep-17 22:02 37.481040 -122.159040 345 4207ft 220kts
29-Sep-17 22:03 37.531509 -122.178694 312 3300ft 181kts
29-Sep-17 22:04 37.556885 -122.228146 297 2268ft 156kts
29-Sep-17 22:05 37.577134 -122.275931 296 1449ft 150kts
29-Sep-17 22:06 37.596027 -122.320906 296 691ft 138kts
29-Sep-17 22:07 37.613250 -122.362100 297 30ft 119kts
29-Sep-17 22:08 37.619007 -122.378111 258 21ft 14kts
29-Sep-17 22:09 37.618962 -122.378288 248 21ft 0kts
29-Sep-17 22:10 37.615909 -122.380017 212 21ft 20kts
29-Sep-17 22:11 37.611440 -122.382971 206 21ft 28kts
29-Sep-17 22:12 37.610896 -122.386302 232 21ft 15kts
29-Sep-17 22:13 37.613653 -122.382181 299 21ft 21kts
29-Sep-17 22:14 37.613893 -122.384034 264 21ft 0kts
29-Sep-17 22:15 37.613893 -122.384034 264 21ft 0kts

Navigation Log

Ident Type
Flight plan parsing failed, navigation log unavailable